Time;durP1;ratioP1;P1;durP2;ratioP2;P2;SDS_P1;SDS_P2;PMS_P1;PMS_P2;Temp;Humidity;BMP_temperature;BMP_pressure;BME280_temperature;BME280_humidity;BME280_pressure;Samples;Min_cycle;Max_cycle;Signal;HPM_P1;HPM_P2
2022/04/24 00:00:10;;;;;;;23.53;20.23;;;;;;;12.16;85.90;93499.84;4383136;32;20188;-63
2022/04/24 00:02:36;;;;;;;19.93;17.97;;;;;;;12.20;85.26;93501.47;4392944;32;20214;-61
2022/04/24 00:05:04;;;;;;;21.17;18.97;;;;;;;12.15;85.30;93498.28;4385160;32;20188;-62
2022/04/24 00:07:31;;;;;;;22.10;19.17;;;;;;;12.09;84.89;93492.47;4370940;32;20322;-61
2022/04/24 00:09:57;;;;;;;23.53;20.37;;;;;;;12.20;84.67;93490.06;4378061;32;20232;-61
2022/04/24 00:12:23;;;;;;;20.90;18.73;;;;;;;12.16;84.47;93478.56;4387209;32;20203;-62
2022/04/24 00:14:49;;;;;;;22.20;20.00;;;;;;;12.13;85.63;93479.25;4379783;32;20250;-62
2022/04/24 00:17:16;;;;;;;20.80;18.70;;;;;;;11.86;85.17;93475.63;4390995;32;20281;-61
2022/04/24 00:19:43;;;;;;;21.13;18.93;;;;;;;12.03;85.63;93476.03;4364878;32;20206;-61
2022/04/24 00:22:09;;;;;;;20.60;18.50;;;;;;;12.11;85.76;93466.31;4372154;32;20196;-62
2022/04/24 00:24:36;;;;;;;22.33;19.93;;;;;;;12.19;84.87;93453.94;4364449;32;20253;-62
2022/04/24 00:27:03;;;;;;;21.57;19.47;;;;;;;12.41;84.53;93468.44;4385067;32;20176;-61
2022/04/24 00:29:29;;;;;;;20.17;18.07;;;;;;;12.19;84.07;93461.94;4386786;32;20188;-61
2022/04/24 00:31:56;;;;;;;21.57;19.47;;;;;;;12.10;85.17;93448.81;4372197;32;20249;-61
2022/04/24 00:34:21;;;;;;;22.73;20.33;;;;;;;12.09;85.01;93446.50;4353166;32;20200;-61
2022/04/24 00:36:48;;;;;;;20.97;18.70;;;;;;;12.12;84.60;93457.22;4387963;32;20188;-61
2022/04/24 00:39:14;;;;;;;20.03;17.97;;;;;;;12.21;84.76;93449.06;4379937;32;20204;-61
2022/04/24 00:41:59;;;;;;;30.77;26.63;;;;;;;12.31;84.57;93441.28;4363246;32;20198;-61
2022/04/24 00:44:27;;;;;;;24.70;22.10;;;;;;;12.19;83.84;93453.94;4390205;32;20207;-61
2022/04/24 00:47:14;;;;;;;19.80;17.80;;;;;;;12.19;84.34;93449.41;4366574;32;20184;-62
2022/04/24 00:49:41;;;;;;;21.53;19.33;;;;;;;12.25;84.21;93449.91;4372559;32;20218;-57
2022/04/24 00:52:08;;;;;;;19.97;17.87;;;;;;;12.27;84.18;93439.66;4398687;32;20256;-61
2022/04/24 00:54:35;;;;;;;21.83;19.60;;;;;;;12.32;84.33;93434.06;4384344;32;20196;-62
2022/04/24 00:57:06;;;;;;;22.60;20.27;;;;;;;12.07;84.29;93438.13;4359388;32;20271;-61
2022/04/24 00:59:34;;;;;;;22.37;20.07;;;;;;;11.77;85.68;93435.22;4378949;32;20240;-61
2022/04/24 01:02:02;;;;;;;20.90;18.50;;;;;;;11.90;85.76;93433.97;4375133;32;20236;-62
2022/04/24 01:04:28;;;;;;;20.70;18.60;;;;;;;11.88;86.21;93421.03;4374456;32;20200;-62
2022/04/24 01:06:55;;;;;;;23.13;20.67;;;;;;;11.94;85.37;93416.22;4382620;32;20206;-61
2022/04/24 01:09:23;;;;;;;24.47;21.73;;;;;;;11.75;85.71;93414.28;4383579;32;20201;-61
2022/04/24 01:11:53;;;;;;;24.93;22.23;;;;;;;11.77;86.21;93398.81;4391213;32;20214;-62
2022/04/24 01:14:20;;;;;;;23.43;21.13;;;;;;;11.80;85.67;93400.78;4381563;32;20196;-63
2022/04/24 01:16:49;;;;;;;21.60;18.97;;;;;;;11.82;85.86;93395.09;4358451;32;20184;-61
2022/04/24 01:19:16;;;;;;;22.83;20.43;;;;;;;11.99;85.96;93389.38;4388149;32;20196;-61
2022/04/24 01:21:44;;;;;;;20.80;18.10;;;;;;;11.84;84.87;93398.19;4400295;32;20223;-61
2022/04/24 01:24:10;;;;;;;22.87;19.83;;;;;;;12.06;85.89;93394.81;4378493;32;20200;-61
2022/04/24 01:26:36;;;;;;;23.60;20.27;;;;;;;12.12;84.54;93398.75;4386263;32;20215;-61
2022/04/24 01:29:04;;;;;;;24.03;21.47;;;;;;;12.10;84.19;93389.59;4390261;32;20196;-62
2022/04/24 01:31:30;;;;;;;24.63;22.00;;;;;;;12.18;83.40;93386.72;4382771;32;20248;-62
2022/04/24 01:33:57;;;;;;;22.50;20.17;;;;;;;12.11;83.97;93391.91;4390002;32;20226;-61
2022/04/24 01:36:23;;;;;;;23.27;20.77;;;;;;;11.93;84.36;93396.09;4391589;32;20247;-61
2022/04/24 01:38:48;;;;;;;22.03;19.37;;;;;;;12.02;84.90;93394.78;4376674;32;20211;-61
2022/04/24 01:41:15;;;;;;;21.57;19.33;;;;;;;12.12;84.84;93398.75;4382488;32;20185;-61
2022/04/24 01:43:41;;;;;;;21.90;19.57;;;;;;;12.17;84.92;93395.81;4383024;32;20252;-61
2022/04/24 01:46:12;;;;;;;23.43;20.93;;;;;;;12.34;84.24;93384.75;4384609;32;20281;-63
2022/04/24 01:48:38;;;;;;;23.10;20.73;;;;;;;12.14;84.28;93393.84;4377580;32;20203;-61
2022/04/24 01:51:14;;;;;;;21.13;18.93;;;;;;;12.29;83.71;93378.94;4394792;32;20180;-61
2022/04/24 01:53:39;;;;;;;23.27;20.90;;;;;;;12.16;84.67;93383.66;4375963;32;20192;-62
2022/04/24 01:56:07;;;;;;;22.40;20.10;;;;;;;12.24;83.51;93379.25;4382800;32;20245;-61
2022/04/24 01:58:35;;;;;;;20.37;18.20;;;;;;;12.17;84.16;93384.41;4383578;32;20245;-62
2022/04/24 02:01:03;;;;;;;21.27;19.03;;;;;;;12.11;83.81;93383.91;4356912;32;20275;-61
2022/04/24 02:03:30;;;;;;;22.30;18.37;;;;;;;12.22;83.74;93379.59;4370193;32;20196;-61
2022/04/24 02:05:56;;;;;;;20.97;18.73;;;;;;;12.23;84.07;93372.38;4391950;32;20260;-61
2022/04/24 02:08:27;;;;;;;23.50;21.17;;;;;;;12.32;83.88;93371.03;4388399;32;20197;-60
2022/04/24 02:10:53;;;;;;;22.60;20.20;;;;;;;12.13;84.12;93362.31;4368073;32;20196;-62
2022/04/24 02:13:21;;;;;;;23.33;20.37;;;;;;;12.17;83.95;93374.56;4379828;32;20181;-61
2022/04/24 02:15:46;;;;;;;23.87;21.47;;;;;;;12.08;84.07;93381.97;4389990;32;20184;-61
2022/04/24 02:18:12;;;;;;;21.77;19.47;;;;;;;12.20;83.56;93379.16;4391589;32;20219;-61
2022/04/24 02:20:37;;;;;;;21.73;19.57;;;;;;;12.13;83.51;93376.38;4392330;32;20184;-61
2022/04/24 02:23:04;;;;;;;25.10;21.90;;;;;;;12.14;83.95;93382.44;4389532;32;20196;-61
2022/04/24 02:25:30;;;;;;;24.53;22.00;;;;;;;12.15;83.34;93371.47;4383580;32;20234;-61
2022/04/24 02:27:56;;;;;;;20.70;18.50;;;;;;;11.67;84.68;93376.16;4390744;32;20185;-61
2022/04/24 02:30:23;;;;;;;24.50;20.93;;;;;;;11.75;85.49;93390.38;4393298;32;20188;-61
2022/04/24 02:32:48;;;;;;;23.53;21.13;;;;;;;11.84;84.96;93388.34;4392135;32;20223;-61
2022/04/24 02:35:14;;;;;;;22.23;19.90;;;;;;;12.06;84.46;93389.50;4372606;32;20192;-61
2022/04/24 02:37:40;;;;;;;24.87;22.27;;;;;;;12.05;84.29;93391.41;4388587;32;20244;-61
2022/04/24 02:40:14;;;;;;;24.73;22.10;;;;;;;12.11;84.06;93396.44;4384425;32;20249;-63
2022/04/24 02:42:41;;;;;;;25.70;22.90;;;;;;;12.13;84.44;93394.19;4374585;32;20196;-62
2022/04/24 02:45:09;;;;;;;23.07;20.67;;;;;;;12.02;83.24;93404.62;4360286;32;20193;-61
2022/04/24 02:47:35;;;;;;;24.77;22.17;;;;;;;11.85;84.72;93403.13;4382907;32;20213;-62
2022/04/24 02:50:01;;;;;;;24.03;21.33;;;;;;;11.84;84.20;93409.59;4355374;32;20251;-63
2022/04/24 02:52:27;;;;;;;23.37;20.87;;;;;;;11.98;84.55;93399.25;4395469;32;20231;-62
2022/04/24 02:54:54;;;;;;;23.87;21.17;;;;;;;12.04;84.44;93407.72;4385683;32;20202;-62
2022/04/24 02:57:23;;;;;;;25.10;22.03;;;;;;;11.86;83.82;93412.62;4387982;32;20200;-61
2022/04/24 02:59:49;;;;;;;24.17;21.57;;;;;;;11.91;84.66;93398.31;4363817;32;20197;-61
2022/04/24 03:02:18;;;;;;;25.07;22.37;;;;;;;11.72;84.35;93399.03;4385825;32;20207;-62
2022/04/24 03:04:48;;;;;;;26.60;23.53;;;;;;;11.67;83.72;93389.44;4381980;32;20187;-62
2022/04/24 03:07:17;;;;;;;25.40;22.60;;;;;;;11.54;85.12;93381.97;4377203;32;20196;-61
2022/04/24 03:09:45;;;;;;;24.10;21.57;;;;;;;11.47;85.72;93379.91;4388420;32;20264;-61
2022/04/24 03:12:10;;;;;;;27.43;23.90;;;;;;;11.48;86.10;93373.47;4388341;32;20197;-62
2022/04/24 03:14:36;;;;;;;26.63;22.87;;;;;;;11.42;85.27;93376.78;4381262;32;20192;-62
2022/04/24 03:17:02;;;;;;;25.93;23.23;;;;;;;11.54;85.61;93374.75;4373183;32;20196;-61
2022/04/24 03:19:27;;;;;;;26.83;21.00;;;;;;;11.57;85.77;93376.72;4393477;32;20196;-61
2022/04/24 03:21:53;;;;;;;24.30;21.80;;;;;;;11.62;86.40;93387.09;4389143;32;20257;-62
2022/04/24 03:24:19;;;;;;;23.47;21.07;;;;;;;11.77;85.79;93396.16;4363281;32;20250;-61
2022/04/24 03:26:47;;;;;;;23.87;20.83;;;;;;;12.05;84.50;93398.63;4364370;32;20247;-62
2022/04/24 03:29:14;;;;;;;25.27;22.50;;;;;;;12.11;84.16;93415.03;4382758;32;20256;-61
2022/04/24 03:31:40;;;;;;;24.50;21.90;;;;;;;12.10;84.21;93432.88;4391881;32;20207;-61
2022/04/24 03:34:07;;;;;;;23.97;21.47;;;;;;;12.28;83.61;93478.44;4375597;32;20196;-61
2022/04/24 03:36:34;;;;;;;23.90;21.30;;;;;;;12.36;82.68;93526.09;4385400;32;20252;-61
2022/04/24 03:38:59;;;;;;;27.43;24.27;;;;;;;12.12;83.49;93523.69;4371705;32;20207;-61
2022/04/24 03:41:24;;;;;;;27.73;24.83;;;;;;;11.92;83.22;93506.16;4395145;32;20193;-62
2022/04/24 03:43:49;;;;;;;26.87;23.97;;;;;;;11.57;84.67;93522.78;4349535;32;20219;-61
2022/04/24 03:46:16;;;;;;;25.17;22.50;;;;;;;11.25;86.47;93515.91;4387952;32;20185;-61
2022/04/24 03:48:42;;;;;;;27.23;24.33;;;;;;;11.41;87.06;93503.44;4400706;32;20214;-62
2022/04/24 03:51:10;;;;;;;29.40;26.20;;;;;;;11.33;87.81;93501.72;4396250;32;20197;-61
2022/04/24 03:53:37;;;;;;;30.03;26.27;;;;;;;11.25;87.75;93497.34;4391457;32;20202;-61
2022/04/24 03:56:06;;;;;;;27.37;24.13;;;;;;;11.26;88.14;93501.53;4375052;32;21288;-61
2022/04/24 03:58:33;;;;;;;28.77;24.90;;;;;;;11.19;89.23;93491.53;4370438;32;20278;-63
2022/04/24 04:01:00;;;;;;;28.67;25.50;;;;;;;11.14;88.84;93485.69;4374686;32;20184;-61
2022/04/24 04:03:26;;;;;;;24.90;21.90;;;;;;;11.07;89.93;93482.84;4391101;32;20196;-61
2022/04/24 04:05:53;;;;;;;26.47;23.20;;;;;;;11.36;89.64;93477.91;4379692;32;20238;-61
2022/04/24 04:08:19;;;;;;;24.67;22.10;;;;;;;11.45;88.40;93485.69;4364978;32;20189;-61
2022/04/24 04:10:49;;;;;;;27.13;24.23;;;;;;;11.49;88.71;93488.44;4348486;32;20255;-61
2022/04/24 04:13:16;;;;;;;29.23;24.50;;;;;;;11.36;88.56;93493.84;4386927;32;20215;-61
2022/04/24 04:15:43;;;;;;;25.83;23.00;;;;;;;11.56;88.35;93505.31;4382118;32;20210;-66
2022/04/24 04:18:09;;;;;;;27.27;23.43;;;;;;;11.60;88.09;93508.06;4377066;32;20193;-62
2022/04/24 04:20:36;;;;;;;26.63;23.73;;;;;;;11.78;87.37;93511.91;4389373;32;20207;-62
2022/04/24 04:23:03;;;;;;;23.20;20.80;;;;;;;11.76;86.90;93502.72;4388031;32;20267;-61
2022/04/24 04:25:30;;;;;;;23.77;21.20;;;;;;;11.80;86.77;93511.56;4389406;32;20248;-61
2022/04/24 04:27:58;;;;;;;23.73;21.20;;;;;;;11.91;86.38;93525.84;4380946;32;20191;-61
2022/04/24 04:30:23;;;;;;;24.90;22.30;;;;;;;12.07;86.01;93531.13;4372675;32;20188;-61
2022/04/24 04:32:52;;;;;;;25.40;21.97;;;;;;;11.93;86.21;93536.91;4378003;32;20211;-61
2022/04/24 04:35:22;;;;;;;21.33;19.20;;;;;;;12.09;85.04;93513.72;4368961;32;20321;-59
2022/04/24 04:37:48;;;;;;;23.10;20.27;;;;;;;12.15;84.93;93536.28;4387533;32;20271;-62
2022/04/24 04:40:16;;;;;;;22.33;19.80;;;;;;;11.66;85.35;93541.19;4370621;32;20193;-61
2022/04/24 04:42:42;;;;;;;23.50;20.73;;;;;;;11.63;86.33;93550.63;4363168;32;20192;-60
2022/04/24 04:45:07;;;;;;;22.07;19.77;;;;;;;11.81;86.25;93560.94;4389140;32;20188;-59
2022/04/24 04:47:35;;;;;;;21.60;19.50;;;;;;;11.96;85.60;93560.16;4371118;32;20228;-60
2022/04/24 04:50:02;;;;;;;21.23;18.97;;;;;;;11.88;85.96;93569.06;4376400;32;20264;-60
2022/04/24 04:52:29;;;;;;;21.67;18.70;;;;;;;12.05;85.20;93569.47;4372103;32;20236;-60
2022/04/24 04:54:57;;;;;;;20.40;18.07;;;;;;;12.21;84.54;93576.66;4390757;32;20248;-60
2022/04/24 04:57:23;;;;;;;22.40;20.10;;;;;;;12.04;85.33;93572.50;4371694;32;20196;-59
2022/04/24 04:59:48;;;;;;;22.73;20.27;;;;;;;12.18;84.43;93575.47;4387813;32;20249;-59
2022/04/24 05:02:14;;;;;;;21.37;19.07;;;;;;;12.15;84.67;93578.81;4371611;32;20192;-60
2022/04/24 05:04:43;;;;;;;22.80;20.40;;;;;;;12.09;84.48;93579.41;4377141;32;20223;-59
2022/04/24 05:07:13;;;;;;;21.53;19.33;;;;;;;11.94;84.42;93583.63;4376317;32;20230;-60
2022/04/24 05:09:39;;;;;;;21.47;18.97;;;;;;;11.76;84.93;93601.00;4370165;32;20226;-60
2022/04/24 05:12:07;;;;;;;22.13;19.00;;;;;;;11.84;85.30;93608.09;4384872;32;20333;-61
2022/04/24 05:14:33;;;;;;;20.43;18.33;;;;;;;11.86;85.24;93609.25;4381327;32;20301;-61
2022/04/24 05:16:59;;;;;;;20.13;18.03;;;;;;;11.88;84.66;93619.53;4365751;32;20280;-60
2022/04/24 05:19:26;;;;;;;19.07;17.17;;;;;;;11.96;84.66;93623.94;4375663;32;20188;-60
2022/04/24 05:21:52;;;;;;;20.53;18.43;;;;;;;11.96;84.71;93622.03;4398944;32;20208;-60
2022/04/24 05:24:21;;;;;;;19.63;17.53;;;;;;;11.92;84.69;93620.41;4392627;32;20228;-61
2022/04/24 05:26:47;;;;;;;19.90;17.90;;;;;;;11.93;84.62;93627.25;4384228;32;20196;-60
2022/04/24 05:29:14;;;;;;;19.20;17.30;;;;;;;11.92;84.69;93634.47;4392481;32;20211;-60
2022/04/24 05:31:39;;;;;;;20.13;18.03;;;;;;;12.00;84.24;93636.19;4382956;32;20184;-60
2022/04/24 05:34:05;;;;;;;18.23;16.30;;;;;;;12.09;83.47;93645.84;4374164;32;20180;-61
2022/04/24 05:36:30;;;;;;;20.60;18.23;;;;;;;12.03;83.87;93663.97;4392026;32;20298;-60
2022/04/24 05:38:55;;;;;;;20.53;18.47;;;;;;;12.01;83.98;93660.88;4386863;32;20253;-60
2022/04/24 05:41:21;;;;;;;19.73;17.63;;;;;;;11.93;84.15;93661.81;4389253;32;20221;-60
2022/04/24 05:43:47;;;;;;;17.43;15.73;;;;;;;12.04;83.85;93660.19;4362850;32;20224;-60
2022/04/24 05:46:14;;;;;;;18.87;16.97;;;;;;;12.25;84.02;93652.72;4401209;32;20239;-60
2022/04/24 05:48:39;;;;;;;19.83;17.73;;;;;;;12.16;83.50;93649.47;4390452;32;20181;-60
2022/04/24 05:51:05;;;;;;;18.00;16.13;;;;;;;12.32;82.82;93652.87;4381685;32;20195;-61
2022/04/24 05:53:30;;;;;;;20.33;18.33;;;;;;;12.29;82.85;93648.25;4367020;32;20278;-61
2022/04/24 05:55:57;;;;;;;19.23;17.20;;;;;;;12.27;82.17;93661.13;4390378;32;20196;-60
2022/04/24 05:58:24;;;;;;;18.93;17.03;;;;;;;12.25;82.82;93660.72;4383146;32;20232;-60
2022/04/24 06:00:51;;;;;;;18.87;16.97;;;;;;;12.25;82.85;93667.91;4384431;32;20191;-60
2022/04/24 06:03:16;;;;;;;18.00;16.27;;;;;;;12.25;83.35;93667.91;4381743;32;20207;-60
2022/04/24 06:05:41;;;;;;;18.97;16.97;;;;;;;12.29;82.26;93669.53;4371346;32;20192;-61
2022/04/24 06:08:07;;;;;;;18.93;17.03;;;;;;;12.19;82.24;93671.94;4368209;32;20204;-61
2022/04/24 06:10:33;;;;;;;17.20;15.50;;;;;;;12.25;82.85;93676.66;4356478;32;20346;-60
2022/04/24 06:12:59;;;;;;;18.83;16.93;;;;;;;12.27;83.11;93676.28;4390847;32;20230;-60
2022/04/24 06:15:26;;;;;;;18.10;16.27;;;;;;;12.23;82.83;93670.91;4375183;32;20248;-60
2022/04/24 06:17:55;;;;;;;16.87;15.13;;;;;;;12.30;82.58;93676.38;4363429;32;20196;-60
2022/04/24 06:20:22;;;;;;;17.33;14.53;;;;;;;12.42;82.20;93674.75;4381646;32;20245;-60
2022/04/24 06:22:54;;;;;;;16.10;14.50;;;;;;;12.44;81.74;93667.22;4356383;32;20246;-61
2022/04/24 06:25:25;;;;;;;18.00;14.90;;;;;;;12.34;81.03;93671.91;4376528;32;20254;-61
2022/04/24 06:27:52;;;;;;;14.73;13.30;;;;;;;12.34;81.73;93671.91;4389022;32;20207;-60
2022/04/24 06:30:24;;;;;;;16.20;14.63;;;;;;;12.28;81.71;93673.28;4363825;32;20228;-60
2022/04/24 06:32:52;;;;;;;15.03;13.47;;;;;;;12.14;81.99;93678.28;4379948;32;20197;-62
2022/04/24 06:35:18;;;;;;;13.37;12.07;;;;;;;12.38;82.15;93678.09;4380258;32;20196;-60
2022/04/24 06:37:45;;;;;;;13.67;12.37;;;;;;;12.29;81.48;93682.03;4384504;32;20196;-60
2022/04/24 06:40:14;;;;;;;12.63;11.53;;;;;;;12.27;80.96;93682.37;4389582;32;20192;-62
2022/04/24 06:43:05;;;;;;;12.80;11.50;;;;;;;12.40;80.44;93680.41;4365128;32;20242;-61
2022/04/24 06:45:38;;;;;;;12.87;11.20;;;;;;;12.50;80.62;93676.44;4381173;32;20275;-60
2022/04/24 06:48:15;;;;;;;10.67;9.70;;;;;;;12.57;78.96;93677.38;4383187;32;20210;-60
2022/04/24 06:50:46;;;;;;;9.63;8.73;;;;;;;12.44;79.24;93680.50;4379320;32;20187;-61
2022/04/24 06:53:19;;;;;;;8.70;7.93;;;;;;;12.32;79.43;93684.03;4378261;32;20196;-60
2022/04/24 06:55:45;;;;;;;8.23;7.53;;;;;;;12.48;79.47;93692.75;4365961;32;20255;-60
2022/04/24 06:58:14;;;;;;;6.87;6.37;;;;;;;12.44;77.82;93691.91;4397375;32;20281;-55
2022/04/24 07:00:43;;;;;;;5.73;5.00;;;;;;;12.45;78.37;93698.00;4390894;32;20176;-60
2022/04/24 07:03:18;;;;;;;4.47;4.17;;;;;;;12.45;75.41;93703.34;4405222;32;20183;-62
2022/04/24 07:05:45;;;;;;;7.90;4.03;;;;;;;12.52;75.36;93704.25;4356398;32;20188;-60
2022/04/24 07:08:17;;;;;;;3.27;2.73;;;;;;;12.52;75.03;93692.84;4383131;32;20196;-61
2022/04/24 07:10:44;;;;;;;2.40;2.20;;;;;;;12.43;74.86;93711.66;4373347;32;20241;-60
2022/04/24 07:13:11;;;;;;;1.80;1.70;;;;;;;12.35;73.00;93713.34;4381690;32;20238;-61
2022/04/24 07:15:38;;;;;;;1.93;1.60;;;;;;;12.38;72.81;93710.00;4382244;32;20189;-60
2022/04/24 07:18:05;;;;;;;2.37;1.80;;;;;;;12.35;73.97;93716.00;4366096;32;20188;-60
2022/04/24 07:20:31;;;;;;;4.03;1.47;;;;;;;12.31;74.25;93717.81;4366828;32;20230;-61
2022/04/24 07:23:00;;;;;;;4.10;2.03;;;;;;;12.30;73.62;93713.59;4385350;32;20196;-61
2022/04/24 07:25:28;;;;;;;1.40;1.40;;;;;;;12.33;74.80;93717.47;4381934;32;20247;-60
2022/04/24 07:27:56;;;;;;;1.90;1.80;;;;;;;12.49;74.09;93720.91;4376512;32;20199;-61
2022/04/24 07:30:21;;;;;;;1.87;1.77;;;;;;;12.64;72.89;93711.38;4362770;32;20237;-60
2022/04/24 07:33:06;;;;;;;1.73;1.60;;;;;;;12.68;74.15;93728.16;4360568;32;20256;-60
2022/04/24 07:35:35;;;;;;;5.63;2.30;;;;;;;12.50;72.77;93721.66;4347308;32;20202;-60
2022/04/24 07:38:03;;;;;;;2.33;1.90;;;;;;;12.59;74.32;93727.59;4391767;32;20252;-60
2022/04/24 07:40:31;;;;;;;2.03;1.93;;;;;;;12.60;72.47;93742.44;4361713;32;20241;-60
2022/04/24 07:43:00;;;;;;;1.00;1.00;;;;;;;12.73;72.19;93727.91;4409109;32;20192;-61
2022/04/24 07:45:48;;;;;;;1.83;0.97;;;;;;;12.70;70.16;93740.00;4372961;32;20208;-61
2022/04/24 07:48:15;;;;;;;1.43;1.20;;;;;;;12.69;71.30;93735.81;4363063;32;20230;-61
2022/04/24 07:50:48;;;;;;;1.10;1.10;;;;;;;12.82;70.95;93747.12;4390695;32;20192;-61
2022/04/24 07:53:16;;;;;;;1.00;0.83;;;;;;;12.84;69.91;93742.25;4381176;32;20234;-62
2022/04/24 07:55:46;;;;;;;0.77;0.70;;;;;;;12.77;69.10;93751.94;4370961;32;20228;-59
2022/04/24 07:58:13;;;;;;;0.87;0.87;;;;;;;12.91;69.44;93761.00;4367219;32;20196;-60
2022/04/24 08:00:40;;;;;;;2.13;1.00;;;;;;;13.06;71.09;93767.44;4361675;32;20206;-61
2022/04/24 08:03:08;;;;;;;0.70;0.70;;;;;;;13.03;68.91;93768.91;4380616;32;20204;-61
2022/04/24 08:05:42;;;;;;;0.57;0.57;;;;;;;12.98;67.86;93774.50;4390630;32;20238;-61
2022/04/24 08:08:31;;;;;;;0.70;0.70;;;;;;;12.91;68.72;93782.31;4354715;32;20236;-62
2022/04/24 08:11:00;;;;;;;0.83;0.70;;;;;;;12.88;68.56;93780.38;4362515;32;20278;-61
2022/04/24 08:13:27;;;;;;;1.53;0.87;;;;;;;12.92;70.23;93791.84;4379838;32;20181;-61
2022/04/24 08:15:54;;;;;;;0.90;0.90;;;;;;;12.90;70.06;93788.75;4378065;32;20211;-61
2022/04/24 08:18:23;;;;;;;1.27;0.97;;;;;;;13.00;70.83;93796.22;4355202;32;20222;-61
2022/04/24 08:20:48;;;;;;;0.80;0.70;;;;;;;13.07;68.82;93800.94;4380339;32;20228;-61
2022/04/24 08:23:16;;;;;;;2.93;0.83;;;;;;;13.01;69.49;93811.06;4384709;32;20250;-61
2022/04/24 08:25:42;;;;;;;1.30;0.80;;;;;;;13.03;70.24;93808.06;4360074;32;20207;-60
2022/04/24 08:28:12;;;;;;;0.90;0.90;;;;;;;13.05;70.23;93808.50;4386115;32;20202;-62
2022/04/24 08:30:46;;;;;;;0.80;0.80;;;;;;;13.15;67.93;93807.19;4377539;32;20196;-62
2022/04/24 08:33:12;;;;;;;1.07;0.80;;;;;;;13.03;68.94;93814.16;4352255;32;20219;-62
2022/04/24 08:35:38;;;;;;;0.53;0.53;;;;;;;13.23;70.01;93816.91;4364943;32;20193;-61
2022/04/24 08:38:05;;;;;;;0.63;0.63;;;;;;;13.28;67.05;93816.66;4373613;32;20197;-62
2022/04/24 08:40:32;;;;;;;0.67;0.67;;;;;;;13.43;67.91;93821.16;4384770;32;20188;-61
2022/04/24 08:43:02;;;;;;;0.67;0.63;;;;;;;13.31;67.61;93830.03;4373013;32;20224;-62
2022/04/24 08:45:31;;;;;;;0.53;0.53;;;;;;;13.34;66.71;93828.56;4374395;32;20216;-61
2022/04/24 08:47:58;;;;;;;0.80;0.47;;;;;;;13.30;68.03;93833.06;4372811;32;20223;-61
2022/04/24 08:50:30;;;;;;;0.60;0.60;;;;;;;13.29;66.79;93839.50;4386625;32;20196;-61
2022/04/24 08:52:57;;;;;;;22.63;2.83;;;;;;;13.44;66.67;93838.69;4373559;32;20241;-61
2022/04/24 08:55:27;;;;;;;15.17;1.90;;;;;;;13.50;69.85;93837.31;4380681;32;20188;-61
2022/04/24 08:57:52;;;;;;;11.87;2.53;;;;;;;13.69;68.99;93842.69;4385041;32;20200;-61
2022/04/24 09:00:20;;;;;;;13.13;2.50;;;;;;;13.85;67.20;93841.84;4379377;32;20291;-61
2022/04/24 09:02:50;;;;;;;0.63;0.63;;;;;;;13.87;67.77;93837.72;4376624;32;20192;-62
2022/04/24 09:05:17;;;;;;;2.10;0.40;;;;;;;13.83;65.66;93850.19;4391620;32;20189;-61
2022/04/24 09:07:46;;;;;;;5.07;0.80;;;;;;;13.80;64.73;93847.44;4376977;32;20197;-59
2022/04/24 09:10:13;;;;;;;0.47;0.40;;;;;;;13.95;64.53;93857.25;4371447;32;20176;-60
2022/04/24 09:12:40;;;;;;;2.97;0.70;;;;;;;14.02;63.57;93852.09;4390806;32;20256;-62
2022/04/24 09:15:07;;;;;;;3.30;0.80;;;;;;;14.14;63.89;93851.16;4371764;32;20208;-62
2022/04/24 09:17:34;;;;;;;1.33;0.30;;;;;;;14.30;63.16;93847.31;4362879;32;20194;-62
2022/04/24 09:20:14;;;;;;;1.07;0.70;;;;;;;14.48;62.28;93844.22;4370205;32;20269;-61
2022/04/24 09:22:42;;;;;;;1.97;0.40;;;;;;;14.49;62.01;93849.22;4359082;32;20240;-62
2022/04/24 09:25:12;;;;;;;0.60;0.37;;;;;;;14.47;62.39;93850.69;4387191;32;20189;-62
2022/04/24 09:27:38;;;;;;;0.80;0.47;;;;;;;14.43;61.69;93854.06;4391826;32;20188;-62
2022/04/24 09:30:15;;;;;;;2.43;0.67;;;;;;;14.71;63.02;93856.47;4377929;32;20341;-66
2022/04/24 09:32:57;;;;;;;0.50;0.50;;;;;;;14.63;61.96;93854.03;4388986;32;20193;-62
2022/04/24 09:35:30;;;;;;;0.37;0.37;;;;;;;14.75;62.51;93859.22;4349657;32;20203;-62
2022/04/24 09:38:08;;;;;;;1.43;0.50;;;;;;;14.79;61.25;93863.47;4382003;32;20193;-62
2022/04/24 09:40:49;;;;;;;0.53;0.37;;;;;;;14.99;60.20;93850.81;4386467;32;20195;-62
2022/04/24 09:43:17;;;;;;;0.60;0.40;;;;;;;15.03;59.01;93846.31;4383154;32;20246;-61
2022/04/24 09:45:53;;;;;;;0.43;0.40;;;;;;;15.00;59.61;93864.94;4351251;32;20256;-57
2022/04/24 09:48:25;;;;;;;0.30;0.30;;;;;;;14.89;58.02;93856.78;4376080;32;20187;-62
2022/04/24 09:50:52;;;;;;;0.43;0.30;;;;;;;14.83;57.63;93866.19;4414086;32;20195;-62
2022/04/24 09:53:21;;;;;;;0.30;0.10;;;;;;;14.93;58.35;93870.97;4381435;32;20239;-61
2022/04/24 09:55:52;;;;;;;0.30;0.30;;;;;;;14.98;58.30;93867.97;4393024;32;20214;-60
2022/04/24 09:58:23;;;;;;;1.33;0.40;;;;;;;15.19;56.83;93864.87;4389098;32;20213;-62
2022/04/24 10:00:51;;;;;;;2.77;0.40;;;;;;;14.92;56.28;93864.09;4391853;32;20227;-61
2022/04/24 10:03:28;;;;;;;1.80;0.40;;;;;;;14.99;57.29;93877.53;4381611;32;20211;-61
2022/04/24 10:05:55;;;;;;;0.43;0.23;;;;;;;15.12;56.42;93875.47;4334733;32;20196;-62
2022/04/24 10:08:26;;;;;;;0.87;0.20;;;;;;;15.24;56.32;93859.25;4380915;32;20222;-61
2022/04/24 10:10:51;;;;;;;0.30;0.30;;;;;;;15.03;55.97;93865.00;4366816;32;20207;-62
2022/04/24 10:13:20;;;;;;;0.30;0.30;;;;;;;15.21;56.25;93861.84;4390424;32;20196;-61
2022/04/24 10:16:18;;;;;;;0.87;0.30;;;;;;;15.23;55.52;93860.38;4390890;32;20188;-61
2022/04/24 10:19:14;;;;;;;0.50;0.50;;;;;;;15.43;55.68;93864.50;4382439;32;20253;-59
2022/04/24 10:22:10;;;;;;;0.37;0.37;;;;;;;15.04;54.73;93874.56;4350028;32;20192;-62
2022/04/24 10:24:44;;;;;;;0.90;0.67;;;;;;;14.87;55.60;93864.38;4403682;32;20298;-61
2022/04/24 10:27:12;;;;;;;0.43;0.43;;;;;;;14.91;56.38;93864.44;4385284;32;20259;-62
2022/04/24 10:29:49;;;;;;;0.50;0.30;;;;;;;14.97;55.63;93858.41;4381534;32;20225;-62
2022/04/24 10:32:32;;;;;;;0.60;0.43;;;;;;;14.94;55.33;93853.03;4357234;32;20188;-61
2022/04/24 10:35:15;;;;;;;0.40;0.40;;;;;;;15.04;56.92;93857.78;4388741;32;20208;-61
2022/04/24 10:37:43;;;;;;;0.60;0.60;;;;;;;14.92;55.88;93861.41;4384162;32;20210;-61
2022/04/24 10:40:15;;;;;;;0.50;0.37;;;;;;;14.87;56.41;93869.72;4383807;32;20187;-61
2022/04/24 10:43:08;;;;;;;1.70;0.50;;;;;;;14.81;55.03;93849.75;4401125;32;20210;-61
2022/04/24 10:45:45;;;;;;;0.60;0.50;;;;;;;15.02;56.32;93863.47;4386041;32;20192;-61
2022/04/24 10:48:15;;;;;;;2.00;0.30;;;;;;;15.07;56.09;93860.50;4388787;32;20196;-61
2022/04/24 10:50:47;;;;;;;0.77;0.40;;;;;;;15.09;56.03;93860.94;4373674;32;20196;-61
2022/04/24 10:53:13;;;;;;;0.30;0.20;;;;;;;14.79;55.98;93852.78;4346783;32;20252;-60
2022/04/24 10:55:42;;;;;;;0.17;0.17;;;;;;;14.56;54.49;93861.91;4385721;32;20193;-61
2022/04/24 10:58:13;;;;;;;1.50;0.50;;;;;;;14.46;55.01;93862.50;4366993;32;20236;-61
2022/04/24 11:00:39;;;;;;;0.10;0.10;;;;;;;14.29;56.08;93867.13;4381521;32;20254;-61
2022/04/24 11:03:13;;;;;;;0.47;0.20;;;;;;;14.27;55.61;93872.03;4390841;32;20196;-61
2022/04/24 11:06:04;;;;;;;0.50;0.43;;;;;;;14.20;55.87;93876.44;4377700;32;20207;-60
2022/04/24 11:08:41;;;;;;;1.50;0.90;;;;;;;13.95;57.51;93878.59;4380791;32;20249;-60
2022/04/24 11:11:13;;;;;;;0.83;0.20;;;;;;;13.80;57.33;93884.75;4368145;32;20193;-60
2022/04/24 11:13:41;;;;;;;0.20;0.20;;;;;;;13.88;56.27;93879.25;4342584;32;20196;-60
2022/04/24 11:16:16;;;;;;;0.10;0.10;;;;;;;13.64;57.31;93882.91;4348260;32;20242;-60
2022/04/24 11:18:47;;;;;;;0.20;0.20;;;;;;;13.65;56.09;93889.03;4383212;32;20196;-60
2022/04/24 11:21:19;;;;;;;0.23;0.23;;;;;;;13.79;56.40;93893.88;4387939;32;20192;-60
2022/04/24 11:23:46;;;;;;;0.20;0.10;;;;;;;13.69;57.08;93893.31;4362408;32;20258;-61
2022/04/24 11:26:14;;;;;;;1.40;0.30;;;;;;;13.55;57.30;93902.87;4366645;32;20193;-62
2022/04/24 11:28:43;;;;;;;0.30;0.30;;;;;;;13.47;57.28;93893.97;4308567;32;20192;-62
2022/04/24 11:31:21;;;;;;;0.87;0.20;;;;;;;13.44;57.97;93901.88;4385079;32;20212;-63